Time;durP1;ratioP1;P1;durP2;ratioP2;P2;SDS_P1;SDS_P2;PMS_P1;PMS_P2;Temp;Humidity;BMP_temperature;BMP_pressure;BME280_temperature;BME280_humidity;BME280_pressure;Samples;Min_cycle;Max_cycle;Signal;HPM_P1;HPM_P2
2023/06/02 00:01:54;;;;;;;7.90;1.60;;;12.20;63.20;;;;;;4949341;28;20050;-82
2023/06/02 00:04:23;;;;;;;9.20;2.00;;;12.20;63.20;;;;;;4940685;28;20284;-81
2023/06/02 00:06:53;;;;;;;12.60;1.90;;;12.20;63.30;;;;;;4946383;28;20163;-82
2023/06/02 00:09:21;;;;;;;8.02;1.60;;;12.20;63.30;;;;;;4940411;28;20552;-81
2023/06/02 00:11:48;;;;;;;7.80;1.80;;;12.20;63.40;;;;;;4944379;28;20056;-82
2023/06/02 00:14:21;;;;;;;10.57;1.87;;;12.20;63.50;;;;;;4960591;28;20070;-81
2023/06/02 00:16:55;;;;;;;10.45;1.80;;;12.20;63.50;;;;;;4942565;28;20266;-82
2023/06/02 00:19:23;;;;;;;9.98;1.60;;;12.10;63.40;;;;;;4949389;28;20047;-81
2023/06/02 00:21:52;;;;;;;9.98;2.10;;;12.20;63.40;;;;;;4953144;28;20047;-82
2023/06/02 00:24:20;;;;;;;13.13;2.15;;;12.10;63.40;;;;;;4966134;28;20055;-83
2023/06/02 00:26:48;;;;;;;10.00;1.70;;;12.20;63.40;;;;;;4952257;28;20549;-83
2023/06/02 00:29:15;;;;;;;7.32;1.42;;;12.10;63.30;;;;;;4928982;28;20297;-82
2023/06/02 00:31:43;;;;;;;8.57;1.92;;;12.10;63.40;;;;;;4941073;28;20122;-82
2023/06/02 00:34:12;;;;;;;8.38;1.40;;;12.20;63.40;;;;;;4952659;28;20553;-82
2023/06/02 00:36:39;;;;;;;12.32;2.42;;;12.10;63.30;;;;;;4944039;28;20134;-82
2023/06/02 00:39:06;;;;;;;9.30;1.83;;;12.10;63.30;;;;;;4936716;28;20063;-82
2023/06/02 00:41:33;;;;;;;13.25;2.03;;;12.10;63.30;;;;;;4928176;28;20261;-82
2023/06/02 00:43:59;;;;;;;9.73;2.08;;;12.10;63.50;;;;;;4952439;28;20138;-82
2023/06/02 00:46:26;;;;;;;9.07;1.67;;;12.10;63.50;;;;;;4936770;28;20067;-82
2023/06/02 00:48:55;;;;;;;7.40;1.45;;;12.10;63.50;;;;;;4952539;28;20052;-82
2023/06/02 00:51:22;;;;;;;8.50;1.70;;;12.10;63.60;;;;;;4945450;28;20058;-82
2023/06/02 00:53:48;;;;;;;11.18;1.40;;;12.10;63.70;;;;;;4958105;28;20268;-81
2023/06/02 00:56:17;;;;;;;10.20;2.00;;;12.00;63.80;;;;;;4937084;28;20055;-82
2023/06/02 00:58:45;;;;;;;8.50;1.40;;;12.00;63.70;;;;;;4949744;28;20127;-82
2023/06/02 01:01:13;;;;;;;10.80;1.80;;;12.00;63.70;;;;;;4948266;28;20599;-82
2023/06/02 01:03:42;;;;;;;7.97;1.80;;;12.00;63.60;;;;;;4956074;28;20597;-82
2023/06/02 01:06:12;;;;;;;9.98;1.50;;;12.00;63.60;;;;;;4950342;28;20248;-82
2023/06/02 01:08:40;;;;;;;10.45;1.70;;;12.00;63.70;;;;;;4944211;28;20641;-82
2023/06/02 01:11:08;;;;;;;9.23;1.50;;;12.00;63.60;;;;;;4951890;28;20162;-82
2023/06/02 01:13:36;;;;;;;8.77;1.60;;;12.00;63.60;;;;;;4951160;28;20574;-81
2023/06/02 01:16:03;;;;;;;10.70;1.87;;;12.00;63.60;;;;;;4949398;28;20088;-82
2023/06/02 01:18:35;;;;;;;8.65;1.60;;;11.90;63.70;;;;;;4926352;28;20303;-82
2023/06/02 01:21:05;;;;;;;8.10;1.80;;;11.90;63.80;;;;;;4942245;28;20143;-82
2023/06/02 01:23:36;;;;;;;9.57;1.90;;;12.00;63.70;;;;;;4940869;28;20048;-81
2023/06/02 01:26:06;;;;;;;9.00;1.60;;;11.90;63.80;;;;;;4950796;28;20048;-82
2023/06/02 01:28:33;;;;;;;9.33;1.53;;;11.90;63.80;;;;;;4950834;28;20066;-82
2023/06/02 01:31:13;;;;;;;12.98;1.90;;;11.90;63.90;;;;;;4935763;28;20264;-82
2023/06/02 01:33:46;;;;;;;9.10;1.52;;;11.90;64.00;;;;;;4932520;29;20051;-81
2023/06/02 01:36:16;;;;;;;10.85;1.40;;;11.90;63.90;;;;;;4949368;28;20070;-81
2023/06/02 01:38:47;;;;;;;8.45;1.08;;;11.90;63.80;;;;;;4929239;28;20139;-81
2023/06/02 01:41:17;;;;;;;7.33;1.73;;;11.90;63.90;;;;;;4942388;28;20212;-81
2023/06/02 01:43:46;;;;;;;10.77;1.60;;;11.90;64.00;;;;;;4935471;28;20284;-81
2023/06/02 01:46:16;;;;;;;10.68;1.70;;;11.90;63.90;;;;;;4928517;29;20525;-81
2023/06/02 01:48:44;;;;;;;8.75;1.38;;;11.90;64.00;;;;;;4948952;28;20130;-81
2023/06/02 01:51:17;;;;;;;9.45;1.45;;;11.90;64.00;;;;;;4964937;28;20052;-81
2023/06/02 01:53:44;;;;;;;8.83;1.77;;;11.90;64.10;;;;;;4927329;29;20525;-81
2023/06/02 01:56:11;;;;;;;10.50;1.60;;;11.90;64.10;;;;;;4948833;28;20256;-81
2023/06/02 01:58:40;;;;;;;11.13;1.90;;;11.90;64.20;;;;;;4942482;28;20044;-82
2023/06/02 02:01:09;;;;;;;8.27;1.63;;;11.90;64.30;;;;;;4932385;28;20536;-82
2023/06/02 02:03:37;;;;;;;8.77;1.80;;;11.90;64.30;;;;;;4942907;28;20058;-82
2023/06/02 02:06:06;;;;;;;9.03;1.47;;;11.90;64.40;;;;;;4950424;28;20503;-81
2023/06/02 02:08:34;;;;;;;10.45;1.98;;;11.90;64.50;;;;;;4951417;28;20256;-82
2023/06/02 02:11:02;;;;;;;12.40;2.10;;;11.90;64.50;;;;;;4950139;28;20040;-82
2023/06/02 02:13:28;;;;;;;13.02;1.73;;;11.90;64.60;;;;;;4950903;28;20062;-81
2023/06/02 02:15:57;;;;;;;6.28;1.40;;;11.90;64.40;;;;;;4949033;28;20150;-81
2023/06/02 02:18:24;;;;;;;6.37;1.33;;;11.90;64.50;;;;;;4950392;28;20056;-81
2023/06/02 02:20:51;;;;;;;11.57;1.50;;;11.90;64.50;;;;;;4942492;28;20265;-81
2023/06/02 02:23:20;;;;;;;10.48;1.30;;;11.90;64.40;;;;;;4947988;28;20052;-82
2023/06/02 02:25:47;;;;;;;9.20;1.80;;;11.90;64.60;;;;;;4923699;29;20048;-82
2023/06/02 02:28:15;;;;;;;9.85;1.40;;;11.90;64.60;;;;;;4952250;28;20051;-81
2023/06/02 02:30:44;;;;;;;10.03;1.60;;;11.90;64.70;;;;;;4937018;28;20083;-82
2023/06/02 02:33:15;;;;;;;8.05;1.27;;;11.90;64.60;;;;;;4934160;28;20272;-81
2023/06/02 02:35:44;;;;;;;9.13;1.60;;;11.90;64.60;;;;;;4933002;28;20730;-82
2023/06/02 02:38:13;;;;;;;8.30;1.27;;;11.90;64.80;;;;;;4947636;28;20586;-81
2023/06/02 02:40:41;;;;;;;8.95;2.05;;;11.90;64.80;;;;;;4943152;28;20502;-82
2023/06/02 02:43:08;;;;;;;11.07;1.57;;;11.80;64.80;;;;;;4942535;28;20536;-81
2023/06/02 02:45:36;;;;;;;11.52;1.25;;;11.80;64.70;;;;;;4945434;28;20264;-81
2023/06/02 02:48:04;;;;;;;8.55;1.48;;;11.80;64.90;;;;;;4965613;28;20052;-81
2023/06/02 02:50:33;;;;;;;9.65;2.17;;;11.70;65.00;;;;;;4966186;28;20048;-82
2023/06/02 02:53:01;;;;;;;10.38;1.70;;;11.70;65.00;;;;;;4942166;28;20576;-81
2023/06/02 02:55:28;;;;;;;8.50;1.30;;;11.70;65.10;;;;;;4950136;28;20059;-81
2023/06/02 02:57:56;;;;;;;7.72;1.50;;;11.80;65.00;;;;;;4948925;28;20252;-82
2023/06/02 03:00:23;;;;;;;8.82;1.30;;;11.70;65.10;;;;;;4949357;28;20075;-82
2023/06/02 03:02:50;;;;;;;9.43;1.58;;;11.70;65.00;;;;;;4937576;28;20058;-82
2023/06/02 03:05:17;;;;;;;9.60;1.40;;;11.70;65.30;;;;;;4947006;28;20219;-82
2023/06/02 03:07:47;;;;;;;7.63;1.70;;;11.70;65.30;;;;;;4933214;28;20122;-82
2023/06/02 03:10:15;;;;;;;10.48;1.92;;;11.70;65.50;;;;;;4949312;28;20316;-82
2023/06/02 03:12:44;;;;;;;8.20;1.45;;;11.70;65.60;;;;;;4965927;28;20091;-82
2023/06/02 03:15:11;;;;;;;10.45;1.98;;;11.70;65.70;;;;;;4943326;28;20108;-82
2023/06/02 03:17:38;;;;;;;12.55;1.63;;;11.70;65.70;;;;;;4941501;28;20898;-83
2023/06/02 03:20:08;;;;;;;13.67;1.80;;;11.70;65.80;;;;;;4929154;28;20048;-82
2023/06/02 03:22:36;;;;;;;11.27;1.67;;;11.60;66.00;;;;;;4925586;28;20276;-82
2023/06/02 03:25:06;;;;;;;7.90;1.60;;;11.60;66.00;;;;;;4953525;28;20056;-81
2023/06/02 03:27:34;;;;;;;10.88;1.85;;;11.60;66.20;;;;;;4941369;28;20056;-82
2023/06/02 03:30:02;;;;;;;9.48;1.40;;;11.60;66.30;;;;;;4924421;28;20063;-82
2023/06/02 03:32:34;;;;;;;8.27;1.10;;;11.50;66.50;;;;;;4928261;29;20062;-82
2023/06/02 03:35:01;;;;;;;7.82;1.67;;;11.50;66.80;;;;;;4946938;28;20272;-81
2023/06/02 03:37:28;;;;;;;12.63;1.92;;;11.50;66.80;;;;;;4940089;28;20048;-82
2023/06/02 03:39:56;;;;;;;11.52;1.77;;;11.50;66.60;;;;;;4945284;28;20527;-82
2023/06/02 03:42:24;;;;;;;9.20;1.58;;;11.50;66.90;;;;;;4954962;28;20052;-82
2023/06/02 03:44:53;;;;;;;10.17;1.70;;;11.50;66.70;;;;;;4926755;28;20059;-82
2023/06/02 03:47:20;;;;;;;13.23;1.73;;;11.50;66.70;;;;;;4934214;28;20718;-82
2023/06/02 03:49:48;;;;;;;10.52;1.88;;;11.50;66.70;;;;;;4933758;28;20055;-82
2023/06/02 03:52:15;;;;;;;10.82;1.58;;;11.50;66.70;;;;;;4934163;28;20048;-82
2023/06/02 03:54:43;;;;;;;8.60;1.65;;;11.50;66.60;;;;;;4926163;28;20059;-81
2023/06/02 03:57:10;;;;;;;9.40;1.90;;;11.50;66.60;;;;;;4933733;28;20063;-81
2023/06/02 03:59:38;;;;;;;10.75;2.20;;;11.60;66.50;;;;;;4927711;28;20268;-81
2023/06/02 04:02:06;;;;;;;8.80;1.42;;;11.60;67.00;;;;;;4937730;28;20206;-81
2023/06/02 04:04:33;;;;;;;10.60;1.63;;;11.60;67.10;;;;;;4948678;28;20130;-81
2023/06/02 04:07:02;;;;;;;9.57;1.50;;;11.60;67.20;;;;;;4916835;29;20060;-81
2023/06/02 04:09:29;;;;;;;12.00;1.67;;;11.60;67.50;;;;;;4912985;29;20526;-81
2023/06/02 04:11:57;;;;;;;13.43;1.73;;;11.50;67.50;;;;;;4913286;29;20292;-81
2023/06/02 04:14:25;;;;;;;6.97;1.35;;;11.50;67.80;;;;;;4913583;29;20060;-80
2023/06/02 04:16:54;;;;;;;11.38;1.63;;;11.50;67.90;;;;;;4914812;29;20084;-81
2023/06/02 04:19:23;;;;;;;11.27;1.73;;;11.50;67.60;;;;;;4944758;28;20514;-82
2023/06/02 04:21:50;;;;;;;9.40;1.53;;;11.50;67.50;;;;;;4942861;28;20131;-81
2023/06/02 04:24:17;;;;;;;9.10;1.48;;;11.60;67.90;;;;;;4944340;28;20263;-82
2023/06/02 04:26:44;;;;;;;8.20;1.38;;;11.50;68.10;;;;;;4946512;28;20570;-81
2023/06/02 04:29:12;;;;;;;9.88;1.90;;;11.50;68.00;;;;;;4941763;28;20494;-81
2023/06/02 04:31:40;;;;;;;9.90;1.67;;;11.50;67.90;;;;;;4939750;28;20052;-81
2023/06/02 04:34:11;;;;;;;10.73;1.90;;;11.50;68.00;;;;;;4935116;28;20051;-81
2023/06/02 04:36:38;;;;;;;11.73;1.67;;;11.60;68.00;;;;;;4933215;28;20270;-81
2023/06/02 04:39:07;;;;;;;10.90;1.67;;;11.60;68.50;;;;;;4932864;28;20051;-81
2023/06/02 04:41:34;;;;;;;9.00;1.50;;;11.60;68.30;;;;;;4935298;28;20542;-81
2023/06/02 04:44:01;;;;;;;13.18;1.88;;;11.60;68.50;;;;;;4929277;28;20569;-82
2023/06/02 04:46:29;;;;;;;8.57;1.53;;;11.60;68.90;;;;;;4939436;28;20119;-81
2023/06/02 04:48:56;;;;;;;7.15;1.50;;;11.60;68.70;;;;;;4928222;29;20296;-82
2023/06/02 04:51:28;;;;;;;10.73;2.00;;;11.60;68.70;;;;;;4928120;29;20059;-81
2023/06/02 04:53:55;;;;;;;7.70;1.65;;;11.60;69.10;;;;;;4930390;29;20056;-82
2023/06/02 04:56:26;;;;;;;10.80;2.13;;;11.60;69.20;;;;;;4929162;29;20067;-82
2023/06/02 04:58:56;;;;;;;12.00;2.10;;;11.60;69.10;;;;;;4939917;28;20074;-82
2023/06/02 05:01:23;;;;;;;9.80;1.67;;;11.60;69.40;;;;;;4924611;28;20276;-82
2023/06/02 05:03:51;;;;;;;12.15;1.58;;;11.60;69.40;;;;;;4933648;28;20531;-82
2023/06/02 05:06:18;;;;;;;13.95;1.98;;;11.60;69.30;;;;;;4913120;29;20048;-82
2023/06/02 05:08:46;;;;;;;11.75;1.67;;;11.60;69.40;;;;;;4913042;29;20606;-82
2023/06/02 05:11:14;;;;;;;10.37;1.90;;;11.60;69.90;;;;;;4930456;29;20530;-81
2023/06/02 05:13:41;;;;;;;10.65;1.70;;;11.60;69.90;;;;;;4919896;28;20268;-82
2023/06/02 05:16:09;;;;;;;9.20;1.55;;;11.60;70.10;;;;;;4935284;28;20057;-82
2023/06/02 05:18:37;;;;;;;8.20;1.55;;;11.60;70.40;;;;;;4934676;28;20047;-82
2023/06/02 05:21:04;;;;;;;9.38;1.77;;;11.60;70.10;;;;;;4934727;28;20502;-82
2023/06/02 05:23:31;;;;;;;12.73;1.77;;;11.60;70.50;;;;;;4951381;28;20067;-81
2023/06/02 05:26:00;;;;;;;8.30;1.75;;;11.60;70.70;;;;;;4935283;28;21064;-81
2023/06/02 05:28:27;;;;;;;8.27;1.80;;;11.60;70.70;;;;;;4948695;28;20185;-81
2023/06/02 05:30:54;;;;;;;12.32;2.03;;;11.60;71.10;;;;;;4942409;28;20534;-82
2023/06/02 05:33:22;;;;;;;9.45;1.73;;;11.60;71.10;;;;;;4947834;28;20136;-81
2023/06/02 05:35:49;;;;;;;11.90;1.80;;;11.60;71.10;;;;;;4939956;28;20150;-82
2023/06/02 05:38:17;;;;;;;12.38;1.80;;;11.60;71.40;;;;;;4935153;28;20318;-81
2023/06/02 05:40:45;;;;;;;9.23;2.15;;;11.60;71.40;;;;;;4934086;28;20112;-81
2023/06/02 05:43:14;;;;;;;12.80;2.00;;;11.60;71.60;;;;;;4947707;28;20060;-81
2023/06/02 05:45:41;;;;;;;9.45;1.50;;;11.60;71.60;;;;;;4947765;28;20058;-81
2023/06/02 05:48:08;;;;;;;9.33;1.57;;;11.60;71.50;;;;;;4946389;28;20506;-81
2023/06/02 05:50:37;;;;;;;12.55;2.08;;;11.60;71.30;;;;;;4931030;29;20277;-81
2023/06/02 05:53:04;;;;;;;8.10;1.58;;;11.70;71.20;;;;;;4946039;28;20162;-81
2023/06/02 05:55:32;;;;;;;9.45;1.75;;;11.70;71.90;;;;;;4960497;28;20052;-81
2023/06/02 05:58:00;;;;;;;9.02;1.80;;;11.70;71.60;;;;;;4930030;28;20060;-81
2023/06/02 06:00:29;;;;;;;12.63;1.83;;;11.70;72.10;;;;;;4946982;28;20055;-80
2023/06/02 06:03:01;;;;;;;10.23;2.05;;;11.70;71.70;;;;;;4926701;28;20813;-82
2023/06/02 06:05:31;;;;;;;9.02;1.80;;;11.70;71.80;;;;;;4947423;28;20058;-82
2023/06/02 06:08:00;;;;;;;12.00;2.10;;;11.70;71.60;;;;;;4947975;28;20043;-82
2023/06/02 06:10:28;;;;;;;12.93;1.92;;;11.80;71.90;;;;;;4932937;28;20080;-80
2023/06/02 06:12:57;;;;;;;13.20;2.30;;;11.80;72.20;;;;;;4949837;28;20064;-82
2023/06/02 06:15:24;;;;;;;11.43;1.80;;;11.80;72.10;;;;;;4948593;28;20833;-80
2023/06/02 06:17:53;;;;;;;10.05;1.92;;;11.80;71.90;;;;;;4932885;28;20055;-81
2023/06/02 06:20:21;;;;;;;13.65;2.08;;;11.90;72.30;;;;;;4930624;28;20087;-81
2023/06/02 06:22:49;;;;;;;10.88;2.25;;;11.90;72.70;;;;;;4944776;28;20059;-81
2023/06/02 06:25:18;;;;;;;11.90;2.10;;;11.90;73.20;;;;;;4948493;28;20051;-80
2023/06/02 06:27:48;;;;;;;9.98;2.33;;;11.90;72.90;;;;;;4926071;29;20268;-80
2023/06/02 06:30:16;;;;;;;12.95;2.28;;;11.90;72.70;;;;;;4938551;28;20422;-80
2023/06/02 06:32:44;;;;;;;14.05;1.92;;;11.90;72.60;;;;;;4934245;28;20047;-80
2023/06/02 06:35:14;;;;;;;13.35;2.05;;;11.90;72.60;;;;;;4933327;28;20512;-80
2023/06/02 06:37:41;;;;;;;14.00;2.60;;;11.90;73.10;;;;;;4948428;28;20521;-79
2023/06/02 06:40:10;;;;;;;12.15;2.17;;;11.90;72.60;;;;;;4933019;28;20347;-83
2023/06/02 06:42:37;;;;;;;12.70;2.22;;;12.00;72.60;;;;;;4933089;28;20629;-79
2023/06/02 06:45:28;;;;;;;11.25;2.53;;;12.00;73.10;;;;;;4959416;28;20517;-79
2023/06/02 06:47:55;;;;;;;16.30;2.85;;;12.00;73.30;;;;;;4991435;23;20580;-79
2023/06/02 06:50:24;;;;;;;16.03;2.47;;;12.00;73.20;;;;;;4950540;28;20057;-80
2023/06/02 06:52:51;;;;;;;16.67;2.75;;;12.10;73.00;;;;;;4982748;28;20287;-79
2023/06/02 06:55:18;;;;;;;18.13;2.80;;;12.10;73.00;;;;;;4968682;28;20089;-83
2023/06/02 06:57:45;;;;;;;15.63;2.80;;;12.10;73.70;;;;;;4985511;28;20083;-81
2023/06/02 07:00:13;;;;;;;14.93;2.03;;;12.20;73.40;;;;;;4967560;28;20047;-81
2023/06/02 07:02:43;;;;;;;11.27;1.97;;;12.20;73.40;;;;;;4983746;28;20055;-82
2023/06/02 07:05:10;;;;;;;14.20;2.53;;;12.20;73.70;;;;;;4967958;28;20291;-84
2023/06/02 07:07:38;;;;;;;18.00;2.70;;;12.20;73.80;;;;;;4969416;28;20131;-83
2023/06/02 07:10:06;;;;;;;14.63;2.78;;;12.30;73.90;;;;;;4982842;28;20106;-83
2023/06/02 07:12:35;;;;;;;12.50;2.80;;;12.30;74.10;;;;;;4977404;28;20065;-85
2023/06/02 07:15:02;;;;;;;14.57;2.73;;;12.30;74.10;;;;;;4965871;28;20162;-81
2023/06/02 07:17:29;;;;;;;13.32;2.65;;;12.40;73.90;;;;;;4976920;28;20750;-84
2023/06/02 07:19:56;;;;;;;16.70;3.13;;;12.40;74.30;;;;;;4952574;28;20225;-83
2023/06/02 07:22:23;;;;;;;14.20;2.80;;;12.50;74.20;;;;;;4969028;28;20059;-81
2023/06/02 07:24:52;;;;;;;13.13;2.67;;;12.50;74.00;;;;;;4968326;28;20055;-83
2023/06/02 07:27:19;;;;;;;14.30;2.80;;;12.50;74.10;;;;;;4984230;28;20058;-84
2023/06/02 07:29:46;;;;;;;14.23;3.42;;;12.50;74.20;;;;;;4984294;28;20326;-84
2023/06/02 07:32:13;;;;;;;13.48;2.97;;;12.50;74.10;;;;;;4956139;28;20071;-84
2023/06/02 07:34:40;;;;;;;14.77;3.35;;;12.50;74.60;;;;;;4948755;28;20055;-82
2023/06/02 07:37:08;;;;;;;16.05;3.08;;;12.50;74.50;;;;;;4977797;28;20062;-83
2023/06/02 07:39:35;;;;;;;13.13;3.13;;;12.60;74.20;;;;;;4950197;28;20051;-81
2023/06/02 07:42:03;;;;;;;14.77;3.22;;;12.70;73.90;;;;;;4966087;28;20753;-85
2023/06/02 07:44:30;;;;;;;14.20;3.03;;;12.70;73.90;;;;;;4966208;28;20063;-84
2023/06/02 07:46:57;;;;;;;14.13;2.92;;;12.80;74.10;;;;;;4965860;28;20166;-85
2023/06/02 07:49:24;;;;;;;15.20;2.40;;;12.80;74.80;;;;;;4966566;28;20139;-83
2023/06/02 07:51:52;;;;;;;16.10;3.47;;;12.80;74.70;;;;;;4949657;28;20054;-86
2023/06/02 07:54:19;;;;;;;12.55;3.00;;;12.90;74.60;;;;;;4982148;28;20284;-84
2023/06/02 07:56:49;;;;;;;14.68;3.53;;;12.90;74.20;;;;;;4963670;28;20508;-82
2023/06/02 07:59:18;;;;;;;15.98;3.50;;;13.00;74.10;;;;;;4966615;28;20501;-83
2023/06/02 08:01:45;;;;;;;12.57;3.38;;;13.00;74.40;;;;;;4965292;28;20051;-82
2023/06/02 08:04:13;;;;;;;13.83;3.07;;;13.00;74.20;;;;;;4963220;28;20052;-82
2023/06/02 08:06:40;;;;;;;14.48;3.40;;;13.10;74.30;;;;;;4958304;28;20279;-83
2023/06/02 08:09:08;;;;;;;14.35;3.28;;;13.10;74.10;;;;;;4966262;28;20513;-82
2023/06/02 08:11:36;;;;;;;11.30;3.20;;;13.10;74.20;;;;;;4962519;28;20055;-85
2023/06/02 08:14:03;;;;;;;11.63;3.42;;;13.10;74.10;;;;;;4983375;28;20051;-83
2023/06/02 08:16:31;;;;;;;15.23;3.70;;;13.20;74.00;;;;;;4965506;28;20181;-83
2023/06/02 08:18:58;;;;;;;17.73;3.72;;;13.30;74.10;;;;;;4965878;28;21061;-83
2023/06/02 08:21:25;;;;;;;8.55;2.05;;;13.30;74.10;;;;;;4965337;28;20465;-83
2023/06/02 08:23:52;;;;;;;13.77;2.92;;;13.40;75.60;;;;;;4966358;28;20150;-83
2023/06/02 08:26:19;;;;;;;10.70;3.55;;;13.50;74.50;;;;;;4961377;28;20441;-83
2023/06/02 08:28:49;;;;;;;11.97;3.60;;;13.50;74.30;;;;;;4979637;28;21009;-82
2023/06/02 08:31:20;;;;;;;16.25;3.47;;;13.60;74.10;;;;;;4980382;28;20423;-85
2023/06/02 08:33:52;;;;;;;14.02;3.63;;;13.70;74.30;;;;;;4949921;28;20462;-83
2023/06/02 08:36:19;;;;;;;12.93;3.30;;;13.70;74.50;;;;;;4974882;28;20056;-82
2023/06/02 08:38:47;;;;;;;9.05;2.90;;;13.90;74.60;;;;;;4973924;28;20059;-83
2023/06/02 08:41:15;;;;;;;18.27;3.93;;;13.90;74.20;;;;;;4969326;28;20062;-84
2023/06/02 08:43:42;;;;;;;13.68;3.10;;;14.00;73.90;;;;;;4983882;28;20259;-85
2023/06/02 08:46:13;;;;;;;13.32;3.47;;;14.00;74.00;;;;;;4946920;28;20196;-82
2023/06/02 08:48:44;;;;;;;12.68;2.92;;;14.10;73.80;;;;;;4953685;28;20055;-81
2023/06/02 08:51:17;;;;;;;12.23;3.45;;;14.10;73.70;;;;;;4967128;28;20059;-81
2023/06/02 08:53:46;;;;;;;9.97;2.97;;;14.20;73.50;;;;;;4960558;28;20055;-82
2023/06/02 08:56:14;;;;;;;12.65;2.97;;;14.30;73.60;;;;;;4957375;28;20296;-81
2023/06/02 08:58:44;;;;;;;12.30;2.88;;;14.30;73.00;;;;;;4970294;28;20098;-82
2023/06/02 09:01:11;;;;;;;13.07;3.25;;;14.40;73.20;;;;;;4967734;28;20896;-82
2023/06/02 09:03:38;;;;;;;13.48;3.17;;;14.50;73.30;;;;;;4961815;28;20071;-82
2023/06/02 09:06:23;;;;;;;11.90;2.60;;;14.60;73.50;;;;;;4985565;28;20051;-82
2023/06/02 09:08:57;;;;;;;11.10;2.75;;;14.70;73.10;;;;;;4964943;28;20287;-82
2023/06/02 09:11:25;;;;;;;9.38;3.00;;;14.80;72.80;;;;;;4965780;28;20063;-82
2023/06/02 09:13:53;;;;;;;9.75;2.88;;;14.90;72.70;;;;;;4985600;28;20061;-83
2023/06/02 09:16:21;;;;;;;7.72;2.50;;;15.00;72.50;;;;;;4970549;28;20179;-84
2023/06/02 09:18:58;;;;;;;14.30;2.70;;;15.00;72.10;;;;;;4969687;28;20051;-84
2023/06/02 09:21:29;;;;;;;10.52;2.50;;;15.20;71.90;;;;;;4952328;28;20303;-85
2023/06/02 09:23:58;;;;;;;9.95;2.95;;;15.20;71.60;;;;;;4981221;28;20047;-84
2023/06/02 09:26:27;;;;;;;13.52;2.70;;;15.30;71.20;;;;;;4956898;28;20059;-84
2023/06/02 09:29:08;;;;;;;9.32;2.17;;;15.40;71.10;;;;;;4957265;28;20062;-85
2023/06/02 09:31:46;;;;;;;10.03;2.20;;;15.40;70.80;;;;;;4973611;28;20191;-85
2023/06/02 09:34:15;;;;;;;7.85;2.25;;;15.50;70.50;;;;;;4953324;28;20347;-85
2023/06/02 09:36:43;;;;;;;8.95;2.22;;;15.50;70.50;;;;;;4953404;28;20058;-85
2023/06/02 09:39:11;;;;;;;11.23;2.20;;;15.60;70.30;;;;;;4969902;28;20145;-83
2023/06/02 09:41:39;;;;;;;8.80;2.30;;;15.70;70.00;;;;;;4969678;28;20051;-82
2023/06/02 09:44:13;;;;;;;8.57;2.20;;;15.80;69.40;;;;;;4970059;28;20063;-83
2023/06/02 09:46:41;;;;;;;9.95;2.22;;;15.80;69.20;;;;;;4969366;28;20252;-82
2023/06/02 09:49:09;;;;;;;10.23;2.10;;;15.90;69.20;;;;;;4969160;28;20051;-81
2023/06/02 09:51:38;;;;;;;6.38;1.45;;;16.00;68.90;;;;;;4969101;28;20061;-81
2023/06/02 09:54:08;;;;;;;11.77;2.15;;;16.10;68.30;;;;;;4975609;28;20055;-79
2023/06/02 09:56:36;;;;;;;11.17;2.70;;;16.20;68.20;;;;;;4963187;28;20059;-85
2023/06/02 09:59:05;;;;;;;6.00;2.47;;;16.20;68.20;;;;;;4985911;28;20804;-82
2023/06/02 10:01:33;;;;;;;7.55;1.88;;;16.40;67.90;;;;;;4953084;28;20048;-85
2023/06/02 10:04:01;;;;;;;7.78;2.35;;;16.40;67.50;;;;;;4984911;28;20142;-85
2023/06/02 10:06:40;;;;;;;30.98;7.38;;;16.40;66.70;;;;;;4982344;28;20048;-85
2023/06/02 10:09:24;;;;;;;83.83;16.03;;;16.50;66.30;;;;;;4953347;28;20051;-83
2023/06/02 10:12:07;;;;;;;61.83;13.10;;;16.50;66.00;;;;;;4967155;28;20693;-83
2023/06/02 10:14:52;;;;;;;32.60;6.57;;;16.60;65.60;;;;;;4950340;28;20058;-83
2023/06/02 10:17:31;;;;;;;41.17;7.65;;;16.60;65.60;;;;;;4966777;28;20139;-83
2023/06/02 10:20:21;;;;;;;57.78;11.48;;;16.60;65.20;;;;;;4977649;28;20087;-85
2023/06/02 10:23:08;;;;;;;24.00;4.30;;;16.70;65.00;;;;;;4947338;28;20051;-85
2023/06/02 10:25:49;;;;;;;49.38;10.27;;;16.70;64.60;;;;;;4968867;28;20299;-84
2023/06/02 10:28:17;;;;;;;14.80;3.03;;;16.80;64.60;;;;;;4957598;28;20138;-87
2023/06/02 10:30:45;;;;;;;7.28;2.05;;;16.90;64.60;;;;;;4968768;28;20074;-84
2023/06/02 10:33:12;;;;;;;51.10;9.55;;;16.90;64.60;;;;;;4967959;28;20147;-85
2023/06/02 10:35:59;;;;;;;10.73;2.90;;;17.00;64.70;;;;;;4969096;28;20134;-85
2023/06/02 10:38:28;;;;;;;8.95;1.77;;;17.00;64.80;;;;;;4984007;28;20283;-78
2023/06/02 10:40:59;;;;;;;6.78;1.77;;;17.10;64.50;;;;;;4966977;28;20079;-76
2023/06/02 10:43:27;;;;;;;11.77;2.10;;;17.20;64.10;;;;;;4947761;28;20150;-78
2023/06/02 10:45:55;;;;;;;5.13;1.75;;;17.20;64.30;;;;;;4965924;28;20059;-77
2023/06/02 10:48:41;;;;;;;6.27;1.50;;;17.20;63.90;;;;;;4964197;28;20047;-77
2023/06/02 10:51:13;;;;;;;6.68;1.70;;;17.30;63.60;;;;;;4964470;28;20287;-77
2023/06/02 10:54:15;;;;;;;6.72;1.60;;;17.30;63.40;;;;;;4979673;28;20048;-76
2023/06/02 10:56:47;;;;;;;6.80;1.48;;;17.40;63.70;;;;;;4980952;28;20568;-80
2023/06/02 10:59:34;;;;;;;10.82;1.90;;;17.50;63.60;;;;;;4983574;28;20051;-77
2023/06/02 11:02:01;;;;;;;6.30;1.30;;;17.50;62.90;;;;;;4979913;28;20091;-78
2023/06/02 11:04:31;;;;;;;7.20;1.52;;;17.50;62.30;;;;;;4969892;28;20390;-76
2023/06/02 11:07:29;;;;;;;5.05;1.25;;;17.60;62.10;;;;;;4969183;28;20051;-76
2023/06/02 11:09:58;;;;;;;5.15;1.27;;;17.60;62.70;;;;;;4983950;28;20576;-78
2023/06/02 11:13:02;;;;;;;4.00;1.08;;;17.70;62.30;;;;;;4984105;28;20055;-77
2023/06/02 11:15:31;;;;;;;5.67;1.20;;;17.80;61.70;;;;;;4966434;28;20093;-77
2023/06/02 11:17:59;;;;;;;4.35;1.00;;;17.80;61.50;;;;;;4964766;28;20259;-77
2023/06/02 11:20:34;;;;;;;8.38;1.20;;;17.90;61.40;;;;;;4981173;28;20063;-76
2023/06/02 11:23:04;;;;;;;5.82;1.05;;;17.90;61.10;;;;;;4981263;28;20059;-76
2023/06/02 11:25:32;;;;;;;7.60;1.40;;;18.00;60.80;;;;;;4967549;28;20138;-77
2023/06/02 11:27:59;;;;;;;4.43;0.97;;;18.00;60.30;;;;;;4965627;28;20105;-75
2023/06/02 11:30:26;;;;;;;4.13;1.15;;;18.00;59.70;;;;;;4950702;28;20278;-74
2023/06/02 11:32:55;;;;;;;5.75;1.10;;;18.10;59.60;;;;;;4965777;28;20458;-79
2023/06/02 11:35:25;;;;;;;4.30;1.30;;;18.10;59.00;;;;;;4982333;28;20055;-76
2023/06/02 11:38:04;;;;;;;4.43;0.80;;;18.20;59.30;;;;;;4965595;28;20078;-77
2023/06/02 11:40:32;;;;;;;5.83;1.20;;;18.20;59.80;;;;;;4967127;28;20059;-76
2023/06/02 11:42:59;;;;;;;4.18;0.80;;;18.30;59.30;;;;;;4965757;28;20278;-76
2023/06/02 11:45:28;;;;;;;5.10;1.15;;;18.40;59.40;;;;;;4966156;28;20083;-76
2023/06/02 11:48:02;;;;;;;3.55;1.02;;;18.40;59.30;;;;;;4961676;28;20047;-76
2023/06/02 11:50:30;;;;;;;6.60;1.27;;;18.50;59.00;;;;;;4964415;28;20100;-76
2023/06/02 11:52:57;;;;;;;4.60;1.10;;;18.50;58.40;;;;;;4981335;28;20058;-76
2023/06/02 11:55:28;;;;;;;4.45;0.90;;;18.60;58.30;;;;;;4963490;28;20259;-76
2023/06/02 11:58:23;;;;;;;4.25;0.88;;;18.70;58.50;;;;;;4982101;28;20134;-76
2023/06/02 12:00:52;;;;;;;6.00;1.20;;;18.80;58.60;;;;;;4958257;28;20051;-76
2023/06/02 12:03:24;;;;;;;6.85;1.25;;;18.80;58.00;;;;;;4965990;28;20075;-76
2023/06/02 12:05:51;;;;;;;5.80;1.10;;;18.90;57.60;;;;;;4965424;28;20170;-76
2023/06/02 12:08:24;;;;;;;4.55;1.27;;;19.00;57.70;;;;;;4967449;28;20266;-76
2023/06/02 12:10:53;;;;;;;5.60;1.10;;;19.10;57.40;;;;;;4958899;28;20143;-77
2023/06/02 12:13:24;;;;;;;4.25;1.00;;;19.20;57.10;;;;;;4967065;28;20059;-76
2023/06/02 12:15:52;;;;;;;4.43;1.00;;;19.20;56.40;;;;;;4982539;28;20048;-76
2023/06/02 12:18:29;;;;;;;6.27;1.07;;;19.30;56.90;;;;;;4966122;28;20055;-76
2023/06/02 12:20:56;;;;;;;4.25;1.05;;;19.40;56.20;;;;;;4961373;28;20256;-77
2023/06/02 12:23:23;;;;;;;3.28;0.88;;;19.50;55.30;;;;;;4966712;28;20127;-75
2023/06/02 12:25:58;;;;;;;4.05;0.85;;;19.50;54.70;;;;;;4982254;28;20419;-78
2023/06/02 12:28:25;;;;;;;3.97;0.75;;;19.60;54.20;;;;;;4967135;28;20130;-77
2023/06/02 12:30:52;;;;;;;3.37;0.90;;;19.70;53.70;;;;;;4983408;28;20912;-77
2023/06/02 12:33:19;;;;;;;5.65;1.00;;;19.70;53.20;;;;;;4967224;28;20362;-78
2023/06/02 12:35:48;;;;;;;3.22;0.95;;;19.90;53.90;;;;;;4984275;28;20047;-83
2023/06/02 12:38:15;;;;;;;6.53;0.90;;;20.00;55.10;;;;;;4986658;28;20047;-80
2023/06/02 12:40:42;;;;;;;22.00;3.85;;;20.00;52.60;;;;;;4984075;28;20119;-79
2023/06/02 12:43:09;;;;;;;6.10;1.50;;;20.10;52.60;;;;;;4968330;28;20051;-79
2023/06/02 12:45:36;;;;;;;12.75;2.88;;;20.20;52.40;;;;;;4964502;28;20729;-79
2023/06/02 12:48:04;;;;;;;12.98;2.90;;;20.30;51.40;;;;;;4986630;28;20055;-79
2023/06/02 12:50:31;;;;;;;8.98;1.60;;;20.30;51.20;;;;;;4967866;28;20052;-79
2023/06/02 12:52:59;;;;;;;7.97;1.67;;;20.50;50.90;;;;;;4967284;28;20056;-79